sensor_id;sensor_type;location;lat;lon;timestamp;P1;durP1;ratioP1;P2;durP2;ratioP2
66145;SDS011;52948;60.040;30.320;2022-12-29T00:00:22;5.00;;;2.70;;
66145;SDS011;52948;60.040;30.320;2022-12-29T00:05:24;4.50;;;2.30;;
66145;SDS011;52948;60.040;30.320;2022-12-29T00:10:27;3.90;;;2.47;;
66145;SDS011;52948;60.040;30.320;2022-12-29T00:15:29;4.57;;;2.80;;
66145;SDS011;52948;60.040;30.320;2022-12-29T00:20:41;6.18;;;2.65;;
66145;SDS011;52948;60.040;30.320;2022-12-29T00:26:02;4.88;;;2.88;;
66145;SDS011;52948;60.040;30.320;2022-12-29T00:31:24;4.53;;;2.85;;
66145;SDS011;52948;60.040;30.320;2022-12-29T00:36:45;5.72;;;2.83;;
66145;SDS011;52948;60.040;30.320;2022-12-29T00:41:47;4.85;;;2.70;;
66145;SDS011;52948;60.040;30.320;2022-12-29T00:47:08;5.05;;;2.70;;
66145;SDS011;52948;60.040;30.320;2022-12-29T00:52:11;3.90;;;1.83;;
66145;SDS011;52948;60.040;30.320;2022-12-29T00:57:14;2.30;;;1.55;;
66145;SDS011;52948;60.040;30.320;2022-12-29T01:02:17;3.72;;;2.10;;
66145;SDS011;52948;60.040;30.320;2022-12-29T01:07:19;4.07;;;1.52;;
66145;SDS011;52948;60.040;30.320;2022-12-29T01:12:21;3.97;;;1.75;;
66145;SDS011;52948;60.040;30.320;2022-12-29T01:17:43;3.55;;;1.50;;
66145;SDS011;52948;60.040;30.320;2022-12-29T01:22:45;2.90;;;1.67;;
66145;SDS011;52948;60.040;30.320;2022-12-29T01:27:49;3.33;;;1.60;;
66145;SDS011;52948;60.040;30.320;2022-12-29T01:32:51;2.47;;;1.50;;
66145;SDS011;52948;60.040;30.320;2022-12-29T01:37:54;1.92;;;1.25;;
66145;SDS011;52948;60.040;30.320;2022-12-29T01:42:56;1.88;;;1.30;;
66145;SDS011;52948;60.040;30.320;2022-12-29T01:47:59;2.55;;;0.90;;
66145;SDS011;52948;60.040;30.320;2022-12-29T01:58:10;1.33;;;1.00;;
66145;SDS011;52948;60.040;30.320;2022-12-29T02:03:13;3.22;;;1.08;;
66145;SDS011;52948;60.040;30.320;2022-12-29T02:08:17;1.95;;;0.52;;
66145;SDS011;52948;60.040;30.320;2022-12-29T02:13:19;1.40;;;0.60;;
66145;SDS011;52948;60.040;30.320;2022-12-29T02:18:24;1.60;;;0.80;;
66145;SDS011;52948;60.040;30.320;2022-12-29T02:34:58;0.75;;;0.63;;
66145;SDS011;52948;60.040;30.320;2022-12-29T02:45:16;3.30;;;0.95;;
66145;SDS011;52948;60.040;30.320;2022-12-29T02:50:25;2.50;;;1.02;;
66145;SDS011;52948;60.040;30.320;2022-12-29T02:55:31;2.63;;;0.88;;
66145;SDS011;52948;60.040;30.320;2022-12-29T03:00:33;2.70;;;1.05;;
66145;SDS011;52948;60.040;30.320;2022-12-29T03:11:15;2.50;;;0.70;;
66145;SDS011;52948;60.040;30.320;2022-12-29T03:16:40;1.85;;;1.13;;
66145;SDS011;52948;60.040;30.320;2022-12-29T03:21:54;1.33;;;0.73;;
66145;SDS011;52948;60.040;30.320;2022-12-29T03:27:34;1.88;;;0.90;;
66145;SDS011;52948;60.040;30.320;2022-12-29T03:32:45;2.78;;;1.35;;
66145;SDS011;52948;60.040;30.320;2022-12-29T03:38:03;2.08;;;1.30;;
66145;SDS011;52948;60.040;30.320;2022-12-29T03:48:12;2.35;;;1.13;;
66145;SDS011;52948;60.040;30.320;2022-12-29T03:53:16;3.78;;;1.13;;
66145;SDS011;52948;60.040;30.320;2022-12-29T03:58:18;2.25;;;0.90;;
66145;SDS011;52948;60.040;30.320;2022-12-29T04:03:54;2.15;;;1.10;;
66145;SDS011;52948;60.040;30.320;2022-12-29T04:08:56;3.42;;;1.40;;
66145;SDS011;52948;60.040;30.320;2022-12-29T04:13:59;4.65;;;1.10;;
66145;SDS011;52948;60.040;30.320;2022-12-29T04:19:03;2.80;;;1.45;;
66145;SDS011;52948;60.040;30.320;2022-12-29T04:24:05;3.50;;;1.48;;
66145;SDS011;52948;60.040;30.320;2022-12-29T04:29:16;3.45;;;1.13;;
66145;SDS011;52948;60.040;30.320;2022-12-29T04:34:49;1.48;;;1.27;;
66145;SDS011;52948;60.040;30.320;2022-12-29T04:39:51;1.58;;;1.23;;
66145;SDS011;52948;60.040;30.320;2022-12-29T04:44:54;4.75;;;1.05;;
66145;SDS011;52948;60.040;30.320;2022-12-29T04:50:25;2.85;;;1.45;;
66145;SDS011;52948;60.040;30.320;2022-12-29T04:55:33;3.47;;;1.38;;
66145;SDS011;52948;60.040;30.320;2022-12-29T05:00:36;2.45;;;1.40;;
66145;SDS011;52948;60.040;30.320;2022-12-29T05:06:02;4.78;;;1.92;;
66145;SDS011;52948;60.040;30.320;2022-12-29T05:11:05;2.30;;;1.38;;
66145;SDS011;52948;60.040;30.320;2022-12-29T05:16:07;2.95;;;1.52;;
66145;SDS011;52948;60.040;30.320;2022-12-29T05:21:10;3.53;;;1.80;;
66145;SDS011;52948;60.040;30.320;2022-12-29T05:26:15;2.28;;;1.48;;
66145;SDS011;52948;60.040;30.320;2022-12-29T05:31:40;2.67;;;1.35;;
66145;SDS011;52948;60.040;30.320;2022-12-29T05:36:42;4.85;;;1.65;;
66145;SDS011;52948;60.040;30.320;2022-12-29T05:41:47;3.42;;;1.30;;
66145;SDS011;52948;60.040;30.320;2022-12-29T05:47:10;2.50;;;1.58;;
66145;SDS011;52948;60.040;30.320;2022-12-29T05:52:43;3.03;;;1.52;;
66145;SDS011;52948;60.040;30.320;2022-12-29T05:57:47;6.32;;;1.75;;
66145;SDS011;52948;60.040;30.320;2022-12-29T06:02:51;3.63;;;1.77;;
66145;SDS011;52948;60.040;30.320;2022-12-29T06:07:54;3.00;;;1.80;;
66145;SDS011;52948;60.040;30.320;2022-12-29T06:12:56;3.72;;;1.75;;
66145;SDS011;52948;60.040;30.320;2022-12-29T06:17:59;2.72;;;2.08;;
66145;SDS011;52948;60.040;30.320;2022-12-29T06:23:02;4.47;;;2.03;;
66145;SDS011;52948;60.040;30.320;2022-12-29T06:28:06;3.60;;;1.40;;
66145;SDS011;52948;60.040;30.320;2022-12-29T06:33:08;3.38;;;1.58;;
66145;SDS011;52948;60.040;30.320;2022-12-29T06:38:11;4.13;;;1.67;;
66145;SDS011;52948;60.040;30.320;2022-12-29T06:43:13;3.17;;;1.70;;
66145;SDS011;52948;60.040;30.320;2022-12-29T06:48:35;5.35;;;2.17;;
66145;SDS011;52948;60.040;30.320;2022-12-29T06:53:38;1.00;;;0.90;;
66145;SDS011;52948;60.040;30.320;2022-12-29T06:58:40;5.70;;;1.88;;
66145;SDS011;52948;60.040;30.320;2022-12-29T07:03:44;3.58;;;1.90;;
66145;SDS011;52948;60.040;30.320;2022-12-29T07:08:47;5.05;;;1.67;;
66145;SDS011;52948;60.040;30.320;2022-12-29T07:13:49;2.65;;;1.67;;
66145;SDS011;52948;60.040;30.320;2022-12-29T07:18:52;3.38;;;1.95;;
66145;SDS011;52948;60.040;30.320;2022-12-29T07:23:54;6.18;;;2.10;;
66145;SDS011;52948;60.040;30.320;2022-12-29T07:28:57;3.15;;;1.67;;
66145;SDS011;52948;60.040;30.320;2022-12-29T07:33:59;2.40;;;1.45;;
66145;SDS011;52948;60.040;30.320;2022-12-29T07:39:02;4.07;;;2.08;;
66145;SDS011;52948;60.040;30.320;2022-12-29T07:44:05;2.95;;;1.48;;
66145;SDS011;52948;60.040;30.320;2022-12-29T07:49:31;0.90;;;0.80;;
66145;SDS011;52948;60.040;30.320;2022-12-29T07:54:33;1.38;;;0.93;;
66145;SDS011;52948;60.040;30.320;2022-12-29T07:59:36;1.23;;;0.98;;
66145;SDS011;52948;60.040;30.320;2022-12-29T08:04:38;2.70;;;1.42;;
66145;SDS011;52948;60.040;30.320;2022-12-29T08:09:40;3.17;;;1.45;;
66145;SDS011;52948;60.040;30.320;2022-12-29T08:14:42;2.50;;;1.63;;
66145;SDS011;52948;60.040;30.320;2022-12-29T08:19:45;1.05;;;0.82;;
66145;SDS011;52948;60.040;30.320;2022-12-29T08:24:47;1.33;;;1.10;;
66145;SDS011;52948;60.040;30.320;2022-12-29T08:29:50;1.95;;;1.40;;
66145;SDS011;52948;60.040;30.320;2022-12-29T08:34:52;3.58;;;1.38;;
66145;SDS011;52948;60.040;30.320;2022-12-29T08:39:55;2.97;;;1.45;;
66145;SDS011;52948;60.040;30.320;2022-12-29T08:45:00;3.25;;;1.23;;
66145;SDS011;52948;60.040;30.320;2022-12-29T08:50:03;4.18;;;1.60;;
66145;SDS011;52948;60.040;30.320;2022-12-29T08:55:06;3.78;;;1.77;;
66145;SDS011;52948;60.040;30.320;2022-12-29T09:00:08;4.68;;;1.50;;
66145;SDS011;52948;60.040;30.320;2022-12-29T09:05:12;2.78;;;1.45;;
66145;SDS011;52948;60.040;30.320;2022-12-29T09:10:14;3.83;;;1.55;;
66145;SDS011;52948;60.040;30.320;2022-12-29T09:15:16;4.22;;;2.15;;
66145;SDS011;52948;60.040;30.320;2022-12-29T09:20:19;3.55;;;1.92;;
66145;SDS011;52948;60.040;30.320;2022-12-29T09:25:22;5.53;;;2.13;;
66145;SDS011;52948;60.040;30.320;2022-12-29T09:30:26;3.25;;;1.98;;
66145;SDS011;52948;60.040;30.320;2022-12-29T09:35:28;6.00;;;2.22;;
66145;SDS011;52948;60.040;30.320;2022-12-29T09:40:31;5.03;;;1.90;;
66145;SDS011;52948;60.040;30.320;2022-12-29T09:45:40;4.30;;;2.38;;
66145;SDS011;52948;60.040;30.320;2022-12-29T09:50:56;7.68;;;4.32;;
66145;SDS011;52948;60.040;30.320;2022-12-29T09:56:01;4.70;;;2.50;;
66145;SDS011;52948;60.040;30.320;2022-12-29T10:01:06;4.95;;;2.97;;
66145;SDS011;52948;60.040;30.320;2022-12-29T10:06:11;1.85;;;1.38;;
66145;SDS011;52948;60.040;30.320;2022-12-29T10:16:26;8.75;;;4.03;;
66145;SDS011;52948;60.040;30.320;2022-12-29T10:27:00;5.57;;;3.17;;
66145;SDS011;52948;60.040;30.320;2022-12-29T10:32:06;5.53;;;3.00;;
66145;SDS011;52948;60.040;30.320;2022-12-29T10:42:42;7.93;;;4.53;;
66145;SDS011;52948;60.040;30.320;2022-12-29T10:47:59;8.32;;;4.20;;
66145;SDS011;52948;60.040;30.320;2022-12-29T10:53:04;8.45;;;3.85;;
66145;SDS011;52948;60.040;30.320;2022-12-29T10:58:09;2.22;;;1.63;;
66145;SDS011;52948;60.040;30.320;2022-12-29T11:08:38;7.28;;;4.43;;
66145;SDS011;52948;60.040;30.320;2022-12-29T11:13:59;10.85;;;5.18;;
66145;SDS011;52948;60.040;30.320;2022-12-29T11:19:19;10.48;;;5.57;;
66145;SDS011;52948;60.040;30.320;2022-12-29T11:24:25;10.50;;;5.82;;
66145;SDS011;52948;60.040;30.320;2022-12-29T11:29:30;5.32;;;2.78;;
66145;SDS011;52948;60.040;30.320;2022-12-29T11:34:40;11.10;;;4.72;;
66145;SDS011;52948;60.040;30.320;2022-12-29T11:44:59;10.00;;;4.28;;
66145;SDS011;52948;60.040;30.320;2022-12-29T11:50:07;3.35;;;1.70;;
66145;SDS011;52948;60.040;30.320;2022-12-29T11:55:17;7.95;;;2.33;;
66145;SDS011;52948;60.040;30.320;2022-12-29T12:00:23;3.03;;;1.95;;
66145;SDS011;52948;60.040;30.320;2022-12-29T12:10:59;5.13;;;1.77;;
66145;SDS011;52948;60.040;30.320;2022-12-29T12:16:33;4.07;;;2.13;;
66145;SDS011;52948;60.040;30.320;2022-12-29T12:21:41;7.60;;;3.83;;
66145;SDS011;52948;60.040;30.320;2022-12-29T12:26:59;4.57;;;2.72;;
66145;SDS011;52948;60.040;30.320;2022-12-29T12:32:15;2.03;;;1.52;;
66145;SDS011;52948;60.040;30.320;2022-12-29T13:09:29;3.50;;;1.98;;
66145;SDS011;52948;60.040;30.320;2022-12-29T13:30:05;2.67;;;1.95;;
66145;SDS011;52948;60.040;30.320;2022-12-29T13:40:56;3.08;;;2.53;;
66145;SDS011;52948;60.040;30.320;2022-12-29T13:46:09;6.32;;;3.42;;
66145;SDS011;52948;60.040;30.320;2022-12-29T13:51:14;4.65;;;2.38;;
66145;SDS011;52948;60.040;30.320;2022-12-29T13:56:19;3.20;;;2.03;;
66145;SDS011;52948;60.040;30.320;2022-12-29T14:06:34;2.92;;;0.98;;
66145;SDS011;52948;60.040;30.320;2022-12-29T14:11:42;1.38;;;1.05;;
66145;SDS011;52948;60.040;30.320;2022-12-29T14:16:46;2.83;;;1.65;;
66145;SDS011;52948;60.040;30.320;2022-12-29T14:21:53;3.63;;;1.52;;
66145;SDS011;52948;60.040;30.320;2022-12-29T14:31:59;5.57;;;2.85;;
66145;SDS011;52948;60.040;30.320;2022-12-29T14:37:02;3.75;;;1.90;;
66145;SDS011;52948;60.040;30.320;2022-12-29T14:42:06;3.13;;;2.30;;
66145;SDS011;52948;60.040;30.320;2022-12-29T14:47:11;5.55;;;2.88;;
66145;SDS011;52948;60.040;30.320;2022-12-29T14:52:23;4.18;;;2.45;;
66145;SDS011;52948;60.040;30.320;2022-12-29T14:57:28;4.20;;;2.53;;
66145;SDS011;52948;60.040;30.320;2022-12-29T15:02:38;3.90;;;2.58;;
66145;SDS011;52948;60.040;30.320;2022-12-29T15:07:41;1.90;;;0.80;;
66145;SDS011;52948;60.040;30.320;2022-12-29T15:12:48;2.72;;;1.85;;
66145;SDS011;52948;60.040;30.320;2022-12-29T15:17:54;4.95;;;2.00;;
66145;SDS011;52948;60.040;30.320;2022-12-29T15:23:18;7.90;;;2.25;;
66145;SDS011;52948;60.040;30.320;2022-12-29T15:28:20;5.78;;;2.13;;
66145;SDS011;52948;60.040;30.320;2022-12-29T15:33:23;2.50;;;0.68;;
66145;SDS011;52948;60.040;30.320;2022-12-29T15:38:29;4.95;;;1.83;;
66145;SDS011;52948;60.040;30.320;2022-12-29T15:43:37;3.75;;;1.58;;
66145;SDS011;52948;60.040;30.320;2022-12-29T15:48:49;2.50;;;1.55;;
66145;SDS011;52948;60.040;30.320;2022-12-29T15:53:51;2.75;;;1.27;;
66145;SDS011;52948;60.040;30.320;2022-12-29T15:58:54;1.90;;;1.48;;
66145;SDS011;52948;60.040;30.320;2022-12-29T16:03:57;2.78;;;1.70;;
66145;SDS011;52948;60.040;30.320;2022-12-29T16:14:08;5.78;;;1.80;;
66145;SDS011;52948;60.040;30.320;2022-12-29T16:19:27;1.90;;;1.00;;
66145;SDS011;52948;60.040;30.320;2022-12-29T16:24:34;1.77;;;1.27;;
66145;SDS011;52948;60.040;30.320;2022-12-29T16:29:38;1.10;;;0.88;;
66145;SDS011;52948;60.040;30.320;2022-12-29T16:39:44;6.43;;;2.60;;
66145;SDS011;52948;60.040;30.320;2022-12-29T16:44:47;3.80;;;1.90;;
66145;SDS011;52948;60.040;30.320;2022-12-29T16:49:50;5.05;;;2.10;;
66145;SDS011;52948;60.040;30.320;2022-12-29T16:54:55;1.90;;;1.00;;
66145;SDS011;52948;60.040;30.320;2022-12-29T16:59:59;3.78;;;1.98;;
66145;SDS011;52948;60.040;30.320;2022-12-29T17:05:07;0.57;;;0.57;;
66145;SDS011;52948;60.040;30.320;2022-12-29T17:10:10;1.17;;;0.85;;
66145;SDS011;52948;60.040;30.320;2022-12-29T17:15:15;3.75;;;1.80;;
66145;SDS011;52948;60.040;30.320;2022-12-29T17:20:23;3.80;;;2.08;;
66145;SDS011;52948;60.040;30.320;2022-12-29T17:25:30;3.40;;;1.75;;
66145;SDS011;52948;60.040;30.320;2022-12-29T17:30:34;3.60;;;1.88;;
66145;SDS011;52948;60.040;30.320;2022-12-29T17:35:37;1.02;;;0.70;;
66145;SDS011;52948;60.040;30.320;2022-12-29T17:40:39;5.20;;;2.55;;
66145;SDS011;52948;60.040;30.320;2022-12-29T17:45:41;2.53;;;1.75;;
66145;SDS011;52948;60.040;30.320;2022-12-29T17:50:45;3.13;;;2.00;;
66145;SDS011;52948;60.040;30.320;2022-12-29T17:55:49;4.35;;;3.13;;
66145;SDS011;52948;60.040;30.320;2022-12-29T18:00:52;4.32;;;2.53;;
66145;SDS011;52948;60.040;30.320;2022-12-29T18:05:55;7.25;;;2.75;;
66145;SDS011;52948;60.040;30.320;2022-12-29T18:10:58;9.90;;;4.95;;
66145;SDS011;52948;60.040;30.320;2022-12-29T18:16:00;8.50;;;4.45;;
66145;SDS011;52948;60.040;30.320;2022-12-29T18:21:02;8.82;;;5.00;;
66145;SDS011;52948;60.040;30.320;2022-12-29T18:26:06;8.50;;;4.63;;
66145;SDS011;52948;60.040;30.320;2022-12-29T18:31:20;7.30;;;4.38;;
66145;SDS011;52948;60.040;30.320;2022-12-29T18:36:24;9.27;;;4.50;;
66145;SDS011;52948;60.040;30.320;2022-12-29T18:41:27;8.70;;;4.30;;
66145;SDS011;52948;60.040;30.320;2022-12-29T18:46:30;8.55;;;4.40;;
66145;SDS011;52948;60.040;30.320;2022-12-29T18:51:32;8.13;;;4.50;;
66145;SDS011;52948;60.040;30.320;2022-12-29T18:56:35;9.00;;;4.38;;
66145;SDS011;52948;60.040;30.320;2022-12-29T19:01:42;6.72;;;4.07;;
66145;SDS011;52948;60.040;30.320;2022-12-29T19:06:44;12.20;;;4.97;;
66145;SDS011;52948;60.040;30.320;2022-12-29T19:11:51;6.22;;;4.53;;
66145;SDS011;52948;60.040;30.320;2022-12-29T19:16:53;8.02;;;4.35;;
66145;SDS011;52948;60.040;30.320;2022-12-29T19:21:56;7.55;;;5.28;;
66145;SDS011;52948;60.040;30.320;2022-12-29T19:26:58;8.50;;;4.90;;
66145;SDS011;52948;60.040;30.320;2022-12-29T19:32:01;8.20;;;4.93;;
66145;SDS011;52948;60.040;30.320;2022-12-29T19:37:04;6.80;;;3.88;;
66145;SDS011;52948;60.040;30.320;2022-12-29T19:42:31;6.60;;;4.18;;
66145;SDS011;52948;60.040;30.320;2022-12-29T19:47:33;7.00;;;4.32;;
66145;SDS011;52948;60.040;30.320;2022-12-29T19:52:40;5.57;;;3.45;;
66145;SDS011;52948;60.040;30.320;2022-12-29T19:57:42;4.43;;;3.10;;
66145;SDS011;52948;60.040;30.320;2022-12-29T20:02:46;4.60;;;2.97;;
66145;SDS011;52948;60.040;30.320;2022-12-29T20:07:52;3.88;;;3.15;;
66145;SDS011;52948;60.040;30.320;2022-12-29T20:12:55;4.63;;;3.13;;
66145;SDS011;52948;60.040;30.320;2022-12-29T20:18:01;6.22;;;2.97;;
66145;SDS011;52948;60.040;30.320;2022-12-29T20:29:21;3.78;;;2.42;;
66145;SDS011;52948;60.040;30.320;2022-12-29T20:34:24;4.32;;;3.28;;
66145;SDS011;52948;60.040;30.320;2022-12-29T20:39:27;4.93;;;3.08;;
66145;SDS011;52948;60.040;30.320;2022-12-29T20:44:30;5.22;;;3.65;;
66145;SDS011;52948;60.040;30.320;2022-12-29T20:49:33;4.80;;;3.20;;
66145;SDS011;52948;60.040;30.320;2022-12-29T20:54:36;5.70;;;3.55;;
66145;SDS011;52948;60.040;30.320;2022-12-29T20:59:38;4.40;;;3.20;;
66145;SDS011;52948;60.040;30.320;2022-12-29T21:04:40;4.72;;;3.00;;
66145;SDS011;52948;60.040;30.320;2022-12-29T21:09:43;5.70;;;3.30;;
66145;SDS011;52948;60.040;30.320;2022-12-29T21:14:45;5.35;;;3.22;;
66145;SDS011;52948;60.040;30.320;2022-12-29T21:19:48;7.10;;;3.33;;
66145;SDS011;52948;60.040;30.320;2022-12-29T21:24:50;5.57;;;3.60;;
66145;SDS011;52948;60.040;30.320;2022-12-29T21:29:52;4.35;;;2.15;;
66145;SDS011;52948;60.040;30.320;2022-12-29T21:34:54;5.18;;;2.58;;
66145;SDS011;52948;60.040;30.320;2022-12-29T21:39:57;6.60;;;3.10;;
66145;SDS011;52948;60.040;30.320;2022-12-29T21:44:59;3.50;;;2.15;;
66145;SDS011;52948;60.040;30.320;2022-12-29T21:50:20;8.18;;;3.10;;
66145;SDS011;52948;60.040;30.320;2022-12-29T21:55:22;3.70;;;2.70;;
66145;SDS011;52948;60.040;30.320;2022-12-29T22:00:24;5.00;;;2.92;;
66145;SDS011;52948;60.040;30.320;2022-12-29T22:05:45;5.40;;;2.50;;
66145;SDS011;52948;60.040;30.320;2022-12-29T22:11:06;2.85;;;1.90;;
66145;SDS011;52948;60.040;30.320;2022-12-29T22:16:28;3.47;;;2.47;;
66145;SDS011;52948;60.040;30.320;2022-12-29T22:21:31;4.20;;;2.05;;
66145;SDS011;52948;60.040;30.320;2022-12-29T22:26:33;2.83;;;2.03;;
66145;SDS011;52948;60.040;30.320;2022-12-29T22:31:35;3.22;;;2.00;;
66145;SDS011;52948;60.040;30.320;2022-12-29T22:36:37;3.45;;;2.38;;
66145;SDS011;52948;60.040;30.320;2022-12-29T22:41:40;3.47;;;2.40;;
66145;SDS011;52948;60.040;30.320;2022-12-29T22:46:42;5.10;;;2.58;;
66145;SDS011;52948;60.040;30.320;2022-12-29T22:51:44;3.78;;;2.25;;
66145;SDS011;52948;60.040;30.320;2022-12-29T22:56:46;3.47;;;2.47;;
66145;SDS011;52948;60.040;30.320;2022-12-29T23:01:49;3.53;;;2.55;;
66145;SDS011;52948;60.040;30.320;2022-12-29T23:06:51;3.97;;;2.85;;
66145;SDS011;52948;60.040;30.320;2022-12-29T23:11:53;4.95;;;2.53;;
66145;SDS011;52948;60.040;30.320;2022-12-29T23:16:55;3.60;;;2.40;;
66145;SDS011;52948;60.040;30.320;2022-12-29T23:21:58;3.20;;;2.00;;
66145;SDS011;52948;60.040;30.320;2022-12-29T23:27:00;3.92;;;2.10;;
66145;SDS011;52948;60.040;30.320;2022-12-29T23:32:03;3.90;;;1.95;;
66145;SDS011;52948;60.040;30.320;2022-12-29T23:37:05;3.47;;;1.85;;
66145;SDS011;52948;60.040;30.320;2022-12-29T23:42:11;3.38;;;2.00;;
66145;SDS011;52948;60.040;30.320;2022-12-29T23:47:17;2.88;;;1.92;;
66145;SDS011;52948;60.040;30.320;2022-12-29T23:52:19;2.85;;;1.92;;
66145;SDS011;52948;60.040;30.320;2022-12-29T23:57:22;3.50;;;2.30;;
